Time;durP1;ratioP1;P1;durP2;ratioP2;P2;SDS_P1;SDS_P2;PMS_P1;PMS_P2;Temp;Humidity;BMP_temperature;BMP_pressure;BME280_temperature;BME280_humidity;BME280_pressure;Samples;Min_cycle;Max_cycle;Signal;HPM_P1;HPM_P2
2023/01/31 00:01:10;;;;;;;12.63;1.50;;;5.00;99.90;;;;;;5013538;28;20092;-68
2023/01/31 00:03:36;;;;;;;12.77;1.50;;;4.80;99.90;;;;;;5013582;28;20061;-68
2023/01/31 00:06:18;;;;;;;11.25;1.50;;;4.80;99.90;;;;;;5013095;28;20483;-68
2023/01/31 00:08:46;;;;;;;9.25;1.30;;;5.00;99.90;;;;;;5017383;28;20050;-69
2023/01/31 00:11:13;;;;;;;11.35;1.90;;;4.50;99.90;;;;;;5016082;28;20053;-68
2023/01/31 00:13:39;;;;;;;13.52;1.67;;;5.00;99.90;;;;;;5018026;28;20080;-68
2023/01/31 00:16:06;;;;;;;17.08;2.58;;;4.90;99.90;;;;;;5017205;28;20387;-68
2023/01/31 00:18:32;;;;;;;9.70;1.33;;;4.40;99.90;;;;;;5017157;28;20050;-68
2023/01/31 00:20:57;;;;;;;12.13;1.50;;;5.20;99.90;;;;;;5016531;28;20475;-68
2023/01/31 00:23:23;;;;;;;9.65;1.20;;;4.40;99.90;;;;;;5015867;28;20056;-68
2023/01/31 00:25:49;;;;;;;11.30;1.70;;;5.20;99.90;;;;;;5017028;28;20066;-68
2023/01/31 00:28:15;;;;;;;18.35;1.88;;;4.40;99.90;;;;;;5015497;28;20125;-68
2023/01/31 00:30:40;;;;;;;14.32;2.15;;;4.80;99.90;;;;;;5016939;28;20077;-69
2023/01/31 00:33:06;;;;;;;8.65;1.33;;;4.60;99.90;;;;;;4999454;28;20053;-68
2023/01/31 00:35:32;;;;;;;8.32;1.42;;;4.30;99.90;;;;;;5016817;28;20084;-67
2023/01/31 00:37:59;;;;;;;11.35;2.03;;;4.50;99.90;;;;;;5015740;28;20044;-68
2023/01/31 00:40:24;;;;;;;14.45;1.83;;;4.90;99.90;;;;;;5017561;28;20127;-67
2023/01/31 00:42:50;;;;;;;11.80;1.50;;;4.60;99.90;;;;;;5016019;28;20058;-67
2023/01/31 00:45:16;;;;;;;12.45;1.92;;;4.50;99.90;;;;;;5017169;28;20567;-68
2023/01/31 00:47:41;;;;;;;10.73;1.70;;;4.60;99.90;;;;;;5016260;28;20376;-68
2023/01/31 00:50:08;;;;;;;12.95;1.80;;;5.10;99.90;;;;;;5016581;28;20050;-67
2023/01/31 00:52:34;;;;;;;10.90;1.42;;;4.20;99.90;;;;;;5017077;28;20372;-67
2023/01/31 00:55:00;;;;;;;9.15;1.38;;;4.50;99.90;;;;;;5016653;28;20132;-66
2023/01/31 00:57:25;;;;;;;10.05;1.92;;;4.50;99.90;;;;;;5017036;28;20506;-68
2023/01/31 00:59:51;;;;;;;14.23;2.03;;;4.30;99.90;;;;;;4999881;28;20406;-67
2023/01/31 01:02:17;;;;;;;7.68;1.40;;;4.60;99.90;;;;;;5016352;28;20160;-67
2023/01/31 01:04:42;;;;;;;7.80;1.52;;;4.50;99.90;;;;;;5016259;28;20045;-67
2023/01/31 01:07:08;;;;;;;14.45;1.88;;;4.60;99.90;;;;;;5015516;28;20085;-67
2023/01/31 01:09:34;;;;;;;10.68;1.40;;;4.10;99.90;;;;;;5015107;28;20053;-68
2023/01/31 01:11:59;;;;;;;12.63;1.98;;;4.60;99.90;;;;;;5015732;28;20392;-67
2023/01/31 01:14:25;;;;;;;6.80;1.35;;;4.60;99.90;;;;;;5016749;28;20384;-67
2023/01/31 01:16:52;;;;;;;16.17;1.92;;;4.30;99.90;;;;;;5016153;28;20038;-67
2023/01/31 01:19:18;;;;;;;12.93;1.77;;;4.60;99.90;;;;;;5013931;28;20484;-67
2023/01/31 01:21:44;;;;;;;8.45;1.50;;;4.30;99.90;;;;;;5015891;28;20410;-68
2023/01/31 01:24:14;;;;;;;10.45;1.50;;;4.40;99.90;;;;;;5014667;28;20042;-67
2023/01/31 01:26:40;;;;;;;15.07;1.90;;;4.40;99.90;;;;;;5015778;28;20144;-67
2023/01/31 01:29:06;;;;;;;11.00;1.38;;;4.80;99.90;;;;;;5015643;28;20136;-67
2023/01/31 01:31:31;;;;;;;9.68;1.85;;;4.20;99.90;;;;;;5015595;28;20124;-68
2023/01/31 01:34:03;;;;;;;12.30;1.50;;;4.70;99.90;;;;;;4999027;28;20064;-65
2023/01/31 01:36:33;;;;;;;9.30;1.50;;;4.10;99.90;;;;;;5016197;28;20054;-67
2023/01/31 01:38:59;;;;;;;9.40;1.38;;;4.00;99.90;;;;;;5015369;28;20060;-66
2023/01/31 01:41:25;;;;;;;11.25;1.33;;;4.40;99.90;;;;;;5016201;28;20046;-67
2023/01/31 01:43:56;;;;;;;14.40;2.28;;;4.20;99.90;;;;;;5014016;28;20495;-68
2023/01/31 01:46:37;;;;;;;12.07;1.45;;;4.00;99.90;;;;;;5016370;28;20046;-67
2023/01/31 01:49:14;;;;;;;12.52;1.95;;;4.50;99.90;;;;;;5015273;28;20503;-67
2023/01/31 01:51:41;;;;;;;10.77;1.80;;;4.10;99.90;;;;;;5015309;28;20058;-66
2023/01/31 01:54:14;;;;;;;12.80;1.98;;;4.10;99.90;;;;;;5015918;28;20134;-67
2023/01/31 01:56:45;;;;;;;10.18;1.58;;;4.10;99.90;;;;;;5014691;28;20050;-67
2023/01/31 01:59:22;;;;;;;9.85;1.38;;;4.20;99.90;;;;;;5015808;28;20052;-68
2023/01/31 02:01:49;;;;;;;9.60;1.65;;;4.30;99.90;;;;;;5015340;28;20058;-67
2023/01/31 02:04:20;;;;;;;14.93;1.65;;;3.70;99.90;;;;;;5015215;28;20491;-67
2023/01/31 02:06:46;;;;;;;9.15;1.85;;;3.70;99.90;;;;;;5015239;28;20052;-68
2023/01/31 02:09:30;;;;;;;9.77;1.20;;;3.60;99.90;;;;;;5015331;28;20067;-67
2023/01/31 02:11:57;;;;;;;9.88;1.05;;;3.60;99.90;;;;;;5014204;28;20469;-67
2023/01/31 02:14:24;;;;;;;12.75;1.67;;;3.90;99.90;;;;;;4997707;28;20077;-67
2023/01/31 02:16:50;;;;;;;9.65;1.17;;;4.00;99.90;;;;;;5015810;28;20112;-68
2023/01/31 02:19:34;;;;;;;7.03;1.10;;;4.30;99.90;;;;;;5013849;28;20479;-67
2023/01/31 02:22:14;;;;;;;5.13;0.95;;;3.60;99.90;;;;;;5013848;28;20045;-66
2023/01/31 02:25:00;;;;;;;9.50;1.42;;;4.30;99.90;;;;;;5015160;28;20046;-67
2023/01/31 02:27:26;;;;;;;11.95;1.35;;;3.80;99.90;;;;;;5014761;28;20056;-67
2023/01/31 02:30:16;;;;;;;13.32;1.20;;;3.80;99.90;;;;;;5013999;28;20042;-67
2023/01/31 02:33:05;;;;;;;8.10;1.90;;;3.70;99.90;;;;;;5015161;28;20049;-67
2023/01/31 02:35:49;;;;;;;9.00;0.98;;;3.90;99.90;;;;;;5015019;28;20049;-66
2023/01/31 02:39:02;;;;;;;10.02;0.93;;;3.90;99.90;;;;;;5013697;28;20096;-66
2023/01/31 02:41:41;;;;;;;12.10;1.20;;;4.10;99.90;;;;;;5011112;28;20140;-67
2023/01/31 02:47:35;;;;;;;7.82;1.17;;;4.00;99.90;;;;;;5015042;28;20061;-67
2023/01/31 02:50:13;;;;;;;8.00;1.10;;;4.00;99.90;;;;;;5014768;28;20049;-66
2023/01/31 02:52:59;;;;;;;10.73;1.17;;;4.30;99.90;;;;;;5014704;28;20054;-66
2023/01/31 02:58:36;;;;;;;11.00;0.98;;;4.10;99.90;;;;;;5013447;28;20057;-67
2023/01/31 03:01:04;;;;;;;9.98;1.08;;;4.30;99.90;;;;;;5014216;28;20042;-67
2023/01/31 03:03:35;;;;;;;7.22;1.20;;;4.10;99.90;;;;;;5013969;28;20049;-66
2023/01/31 03:06:32;;;;;;;9.25;0.90;;;4.10;99.90;;;;;;5014574;28;20398;-67
2023/01/31 03:09:06;;;;;;;9.20;1.15;;;4.80;99.90;;;;;;5013161;28;20403;-67
2023/01/31 03:12:07;;;;;;;7.72;1.00;;;3.90;99.90;;;;;;5014147;28;20107;-67
2023/01/31 03:14:43;;;;;;;8.02;0.95;;;4.30;99.90;;;;;;5012608;28;20081;-67
2023/01/31 03:17:33;;;;;;;7.55;1.02;;;4.00;99.90;;;;;;5013891;28;20106;-67
2023/01/31 03:20:18;;;;;;;8.75;1.00;;;4.10;99.90;;;;;;5014215;28;20054;-67
2023/01/31 03:22:56;;;;;;;6.80;1.20;;;4.20;99.90;;;;;;5013947;28;20107;-67
2023/01/31 03:25:26;;;;;;;4.88;1.10;;;4.60;99.90;;;;;;5013960;28;20479;-67
2023/01/31 03:27:56;;;;;;;11.32;1.10;;;4.30;99.90;;;;;;5014683;28;20104;-67
2023/01/31 03:30:54;;;;;;;8.63;1.23;;;5.00;99.90;;;;;;5014410;28;20193;-67
2023/01/31 03:33:32;;;;;;;8.95;1.45;;;3.80;99.90;;;;;;5013894;28;20037;-67
2023/01/31 03:36:18;;;;;;;7.45;0.98;;;3.90;99.90;;;;;;5013402;28;20053;-67
2023/01/31 03:38:59;;;;;;;7.85;0.80;;;4.00;99.90;;;;;;5011941;28;20049;-67
2023/01/31 03:41:33;;;;;;;8.00;0.88;;;4.20;99.90;;;;;;5015929;28;20049;-67
2023/01/31 03:44:13;;;;;;;7.63;1.45;;;4.40;99.90;;;;;;5020299;28;20050;-67
2023/01/31 03:46:44;;;;;;;10.70;1.60;;;4.40;99.90;;;;;;5020778;28;20088;-67
2023/01/31 03:49:13;;;;;;;5.82;1.00;;;4.20;99.90;;;;;;5019043;28;20128;-67
2023/01/31 03:51:45;;;;;;;6.35;0.98;;;4.40;99.90;;;;;;5020135;28;20045;-67
2023/01/31 03:54:19;;;;;;;7.28;1.67;;;4.40;99.90;;;;;;5019986;28;20064;-64
2023/01/31 03:56:51;;;;;;;7.65;1.25;;;4.20;99.90;;;;;;5020118;28;20104;-66
2023/01/31 03:59:22;;;;;;;4.40;0.95;;;4.70;99.90;;;;;;5020195;28;20137;-67
2023/01/31 04:01:51;;;;;;;6.95;0.90;;;4.50;99.90;;;;;;5020933;28;20046;-66
2023/01/31 04:04:23;;;;;;;11.07;1.35;;;4.20;99.90;;;;;;5020602;28;20049;-67
2023/01/31 04:06:49;;;;;;;7.88;1.23;;;4.40;99.90;;;;;;5019721;28;20417;-67
2023/01/31 04:09:15;;;;;;;6.20;1.38;;;4.30;99.90;;;;;;5019960;28;20045;-67
2023/01/31 04:11:41;;;;;;;7.82;1.38;;;4.30;99.90;;;;;;5020077;28;20108;-67
2023/01/31 04:14:08;;;;;;;9.45;0.88;;;4.40;99.90;;;;;;5019996;28;20085;-67
2023/01/31 04:16:34;;;;;;;6.82;0.75;;;4.30;99.90;;;;;;5020417;28;20045;-66
2023/01/31 04:19:00;;;;;;;10.90;1.10;;;4.40;99.90;;;;;;5018740;28;20046;-68
2023/01/31 04:21:25;;;;;;;6.32;0.93;;;4.60;99.90;;;;;;5018898;28;20057;-66
2023/01/31 04:23:51;;;;;;;8.15;1.20;;;4.60;99.90;;;;;;5018876;28;20041;-67
2023/01/31 04:26:17;;;;;;;7.82;1.13;;;4.20;99.90;;;;;;5019214;28;20037;-67
2023/01/31 04:28:43;;;;;;;17.38;1.40;;;4.30;99.90;;;;;;5019240;28;20101;-66
2023/01/31 04:31:08;;;;;;;9.73;1.25;;;4.20;99.90;;;;;;5002133;28;20046;-67
2023/01/31 04:33:34;;;;;;;11.38;1.15;;;4.40;99.90;;;;;;5018781;28;20057;-68
2023/01/31 04:36:00;;;;;;;8.43;1.40;;;4.50;99.90;;;;;;5019384;28;20429;-67
2023/01/31 04:38:25;;;;;;;6.20;0.90;;;4.30;99.90;;;;;;5018416;28;20045;-67
2023/01/31 04:40:51;;;;;;;9.25;1.33;;;4.50;99.90;;;;;;5018509;28;20054;-67
2023/01/31 04:43:17;;;;;;;8.75;1.63;;;4.40;99.90;;;;;;5019738;28;20045;-67
2023/01/31 04:45:42;;;;;;;7.50;1.42;;;5.10;99.90;;;;;;5018574;28;20092;-67
2023/01/31 04:48:08;;;;;;;9.35;1.50;;;4.80;99.90;;;;;;5019960;28;20089;-67
2023/01/31 04:50:34;;;;;;;12.52;2.03;;;4.50;99.90;;;;;;5018654;28;20061;-67
2023/01/31 04:52:59;;;;;;;9.85;1.20;;;4.70;99.90;;;;;;5016647;28;20049;-67
2023/01/31 04:55:26;;;;;;;9.82;1.60;;;4.70;99.90;;;;;;5016523;28;20044;-67
2023/01/31 04:57:52;;;;;;;8.65;1.20;;;4.50;99.90;;;;;;5015507;28;20051;-67
2023/01/31 05:00:18;;;;;;;8.32;1.10;;;5.10;99.90;;;;;;5016478;28;20042;-67
2023/01/31 05:02:44;;;;;;;4.38;1.10;;;4.50;99.90;;;;;;5016408;28;20156;-67
2023/01/31 05:05:11;;;;;;;9.80;1.30;;;4.70;99.90;;;;;;5016709;28;20049;-67
2023/01/31 05:07:38;;;;;;;10.50;1.77;;;4.40;99.90;;;;;;4999428;28;20133;-67
2023/01/31 05:10:04;;;;;;;9.15;1.23;;;4.80;99.90;;;;;;5014837;28;20483;-67
2023/01/31 05:12:30;;;;;;;16.25;1.73;;;4.40;99.90;;;;;;5015810;28;20050;-67
2023/01/31 05:14:55;;;;;;;10.25;1.50;;;4.90;99.90;;;;;;5016098;28;20545;-67
2023/01/31 05:17:28;;;;;;;9.13;1.50;;;5.10;99.90;;;;;;4998810;28;20076;-67
2023/01/31 05:19:55;;;;;;;9.73;1.58;;;4.80;99.90;;;;;;5015500;28;20124;-67
2023/01/31 05:22:21;;;;;;;8.60;1.40;;;4.80;99.90;;;;;;5014863;28;20475;-67
2023/01/31 05:24:48;;;;;;;7.57;1.38;;;4.60;99.90;;;;;;5016034;28;20052;-67
2023/01/31 05:27:14;;;;;;;7.65;1.40;;;5.10;99.90;;;;;;5015944;28;20053;-67
2023/01/31 05:29:40;;;;;;;10.45;1.58;;;5.70;99.90;;;;;;5014916;28;20053;-66
2023/01/31 05:32:06;;;;;;;11.40;2.17;;;4.60;99.90;;;;;;5015827;28;20053;-67
2023/01/31 05:34:32;;;;;;;12.57;1.60;;;4.60;99.90;;;;;;5016182;28;20050;-67
2023/01/31 05:36:58;;;;;;;12.23;1.75;;;4.90;99.90;;;;;;5015831;28;20056;-66
2023/01/31 05:39:24;;;;;;;9.10;1.95;;;5.10;99.90;;;;;;5016199;28;20399;-67
2023/01/31 05:41:51;;;;;;;8.20;2.03;;;5.00;99.90;;;;;;5015690;28;20050;-67
2023/01/31 05:44:18;;;;;;;13.20;1.40;;;5.30;99.90;;;;;;5015474;28;20495;-67
2023/01/31 05:46:44;;;;;;;8.30;1.80;;;4.90;99.90;;;;;;5015593;28;20131;-67
2023/01/31 05:49:10;;;;;;;13.68;2.13;;;4.70;99.90;;;;;;5014551;28;20049;-67
2023/01/31 05:51:36;;;;;;;8.63;1.70;;;4.80;99.90;;;;;;4999137;28;20056;-66
2023/01/31 05:54:01;;;;;;;12.52;1.90;;;4.50;99.90;;;;;;5015694;28;20089;-67
2023/01/31 05:56:27;;;;;;;9.55;2.08;;;4.90;99.90;;;;;;5015244;28;20491;-67
2023/01/31 05:58:53;;;;;;;11.60;1.85;;;5.00;99.90;;;;;;5014357;28;20038;-67
2023/01/31 06:01:21;;;;;;;16.50;1.90;;;5.10;99.90;;;;;;5015485;28;20065;-67
2023/01/31 06:03:47;;;;;;;9.95;1.95;;;5.10;99.90;;;;;;5014996;28;20108;-67
2023/01/31 06:06:13;;;;;;;15.27;2.20;;;5.00;99.90;;;;;;5014326;28;20046;-68
2023/01/31 06:08:40;;;;;;;11.73;1.50;;;4.80;99.90;;;;;;5015146;28;20042;-66
2023/01/31 06:11:07;;;;;;;14.25;1.95;;;5.00;99.90;;;;;;5015227;28;20129;-66
2023/01/31 06:13:33;;;;;;;14.02;2.47;;;5.00;99.90;;;;;;5015438;28;20058;-66
2023/01/31 06:15:59;;;;;;;13.80;2.13;;;5.10;99.90;;;;;;5013947;28;20137;-67
2023/01/31 06:18:25;;;;;;;11.80;2.00;;;5.30;99.90;;;;;;5015049;28;20049;-66
2023/01/31 06:20:51;;;;;;;14.73;3.10;;;5.10;99.90;;;;;;5013859;28;20038;-66
2023/01/31 06:23:18;;;;;;;16.08;2.30;;;5.30;99.90;;;;;;5014745;28;20372;-67
2023/01/31 06:25:43;;;;;;;13.05;2.58;;;5.20;99.90;;;;;;5014870;28;20100;-66
2023/01/31 06:28:09;;;;;;;11.95;2.95;;;5.00;99.90;;;;;;5015696;28;20046;-67
2023/01/31 06:30:35;;;;;;;15.27;3.20;;;5.20;99.90;;;;;;5014668;28;20543;-66
2023/01/31 06:33:01;;;;;;;10.70;2.17;;;4.90;99.90;;;;;;5014806;28;20052;-67
2023/01/31 06:35:28;;;;;;;9.45;2.25;;;5.30;99.90;;;;;;5013498;28;20042;-66
2023/01/31 06:37:54;;;;;;;14.20;3.13;;;5.10;99.90;;;;;;5015087;28;20137;-66
2023/01/31 06:40:20;;;;;;;13.52;3.05;;;5.20;99.90;;;;;;5014645;28;20081;-65
2023/01/31 06:42:46;;;;;;;12.55;2.30;;;5.50;99.90;;;;;;4998077;28;20053;-67
2023/01/31 06:45:12;;;;;;;9.50;2.25;;;5.20;99.90;;;;;;5013266;28;20042;-67
2023/01/31 06:47:38;;;;;;;13.30;2.88;;;5.60;99.90;;;;;;5014284;28;20057;-68
2023/01/31 06:50:04;;;;;;;12.75;2.47;;;5.50;99.90;;;;;;5014212;28;20444;-67
2023/01/31 06:52:29;;;;;;;16.33;2.95;;;5.20;99.90;;;;;;5015261;28;20057;-67
2023/01/31 06:54:55;;;;;;;15.10;2.88;;;5.30;99.90;;;;;;5013176;28;20042;-67
2023/01/31 06:57:20;;;;;;;15.75;2.80;;;5.60;99.90;;;;;;5013335;28;20045;-67
2023/01/31 06:59:46;;;;;;;15.38;2.83;;;5.50;99.90;;;;;;5013279;28;20041;-66
2023/01/31 07:02:12;;;;;;;11.05;2.47;;;5.30;99.90;;;;;;5014229;28;20046;-67
2023/01/31 07:04:37;;;;;;;13.55;2.75;;;5.70;99.90;;;;;;4996877;28;20069;-67
2023/01/31 07:07:03;;;;;;;13.15;2.60;;;5.30;99.90;;;;;;5014376;28;20053;-67
2023/01/31 07:09:29;;;;;;;11.35;2.38;;;5.60;99.90;;;;;;5014376;28;20052;-67
2023/01/31 07:11:54;;;;;;;12.13;2.53;;;5.40;99.90;;;;;;5014865;28;20096;-66
2023/01/31 07:14:20;;;;;;;14.23;2.65;;;5.30;99.90;;;;;;5013784;28;20100;-68
2023/01/31 07:16:46;;;;;;;13.10;2.92;;;5.70;99.90;;;;;;5013382;28;20052;-66
2023/01/31 07:19:12;;;;;;;20.23;3.03;;;5.60;99.90;;;;;;5012967;28;20041;-66
2023/01/31 07:21:37;;;;;;;11.30;2.25;;;5.40;99.90;;;;;;4996545;28;20046;-66
2023/01/31 07:24:03;;;;;;;9.73;2.58;;;5.40;99.90;;;;;;4997490;28;20050;-67
2023/01/31 07:26:29;;;;;;;12.75;2.42;;;5.20;99.90;;;;;;5012810;28;20402;-67
2023/01/31 07:28:55;;;;;;;10.02;2.33;;;5.90;99.90;;;;;;5014063;28;20499;-66
2023/01/31 07:31:21;;;;;;;18.08;3.08;;;5.50;99.90;;;;;;5013874;28;20069;-66
2023/01/31 07:33:47;;;;;;;11.63;2.65;;;5.50;99.90;;;;;;5013821;28;20076;-67
2023/01/31 07:36:14;;;;;;;10.93;2.65;;;5.40;99.90;;;;;;5014218;28;20132;-67
2023/01/31 07:38:40;;;;;;;13.05;2.08;;;5.90;99.90;;;;;;5014193;28;20057;-67
2023/01/31 07:41:07;;;;;;;10.30;1.70;;;5.80;99.90;;;;;;5012812;28;20054;-67
2023/01/31 07:43:33;;;;;;;13.20;2.20;;;5.50;99.90;;;;;;5013709;28;20100;-66
2023/01/31 07:45:59;;;;;;;10.48;1.80;;;5.50;99.90;;;;;;5013670;28;20143;-66
2023/01/31 07:48:26;;;;;;;5.85;2.10;;;6.00;99.90;;;;;;5014008;28;20081;-67
2023/01/31 07:50:59;;;;;;;12.25;2.13;;;5.60;99.90;;;;;;5013668;28;20050;-66
2023/01/31 07:53:31;;;;;;;8.80;1.45;;;5.80;99.90;;;;;;5014232;28;20053;-66
2023/01/31 07:56:12;;;;;;;7.75;2.38;;;5.80;99.90;;;;;;5013036;28;20042;-67
2023/01/31 07:58:40;;;;;;;6.55;1.48;;;5.50;99.90;;;;;;5013650;28;20123;-66
2023/01/31 08:03:51;;;;;;;9.88;1.60;;;5.70;99.90;;;;;;5013674;28;20065;-66
2023/01/31 08:06:17;;;;;;;7.63;1.95;;;5.90;99.90;;;;;;5013620;28;20038;-67
2023/01/31 08:08:43;;;;;;;11.05;2.30;;;5.80;99.90;;;;;;5013585;28;20056;-66
2023/01/31 08:11:09;;;;;;;14.68;2.33;;;5.70;99.90;;;;;;5013546;28;20049;-66
2023/01/31 08:13:37;;;;;;;14.98;2.28;;;5.70;99.90;;;;;;5013117;28;20062;-68
2023/01/31 08:16:04;;;;;;;11.73;1.52;;;6.00;99.90;;;;;;5012417;28;20045;-67
2023/01/31 08:18:30;;;;;;;7.20;1.98;;;5.80;99.90;;;;;;5013646;28;20069;-67
2023/01/31 08:20:57;;;;;;;9.18;1.80;;;5.60;99.90;;;;;;5013480;28;20471;-67
2023/01/31 08:23:23;;;;;;;6.38;1.90;;;5.80;99.90;;;;;;5012408;28;20046;-65
2023/01/31 08:25:48;;;;;;;10.75;1.42;;;5.70;99.90;;;;;;5013550;28;20061;-66
2023/01/31 08:28:14;;;;;;;10.93;1.92;;;6.00;99.90;;;;;;5017241;28;20045;-67
2023/01/31 08:30:42;;;;;;;9.27;1.77;;;6.20;99.90;;;;;;5017190;28;20046;-66
2023/01/31 08:33:09;;;;;;;12.02;1.95;;;6.10;99.90;;;;;;5017110;28;20054;-67
2023/01/31 08:35:35;;;;;;;6.82;1.33;;;6.10;99.90;;;;;;5017049;28;20383;-68
2023/01/31 08:38:01;;;;;;;9.32;1.40;;;6.20;99.90;;;;;;5016832;28;20046;-65
2023/01/31 08:40:27;;;;;;;11.32;1.83;;;5.80;99.90;;;;;;5019480;28;20084;-67
2023/01/31 08:42:57;;;;;;;13.27;2.10;;;6.00;99.90;;;;;;5017498;28;20046;-65
2023/01/31 08:45:23;;;;;;;5.78;1.83;;;5.90;99.90;;;;;;5016456;28;20491;-68
2023/01/31 08:47:57;;;;;;;11.48;1.75;;;6.00;99.90;;;;;;5015705;28;20056;-67
2023/01/31 08:50:25;;;;;;;12.00;2.30;;;5.90;99.90;;;;;;5016829;28;20533;-67
2023/01/31 08:52:56;;;;;;;9.73;1.95;;;6.00;99.90;;;;;;5015757;28;20483;-67
2023/01/31 08:55:23;;;;;;;7.88;1.35;;;6.10;99.90;;;;;;5018213;28;20114;-66
2023/01/31 08:57:50;;;;;;;12.05;1.92;;;5.90;99.90;;;;;;5016675;28;20133;-66
2023/01/31 09:00:17;;;;;;;4.78;1.23;;;6.30;99.90;;;;;;5016602;28;20046;-66
2023/01/31 09:02:45;;;;;;;8.18;1.58;;;6.10;99.90;;;;;;5016198;28;20403;-68
2023/01/31 09:05:11;;;;;;;4.40;1.10;;;6.00;99.90;;;;;;5015568;28;20046;-67
2023/01/31 09:07:37;;;;;;;10.27;1.70;;;6.10;99.90;;;;;;5016472;28;20394;-67
2023/01/31 09:10:03;;;;;;;8.57;1.30;;;6.10;99.90;;;;;;5016049;28;20050;-66
2023/01/31 09:12:29;;;;;;;7.40;1.98;;;6.10;99.90;;;;;;5015445;28;20132;-65
2023/01/31 09:14:55;;;;;;;8.10;1.80;;;6.20;99.90;;;;;;5016219;28;20085;-66
2023/01/31 09:17:21;;;;;;;7.97;1.35;;;6.20;99.90;;;;;;5016347;28;20139;-66
2023/01/31 09:19:47;;;;;;;7.57;1.40;;;6.50;99.90;;;;;;5016252;28;20531;-66
2023/01/31 09:22:13;;;;;;;7.00;1.35;;;6.40;99.90;;;;;;5016185;28;20568;-65
2023/01/31 09:24:39;;;;;;;9.05;1.45;;;6.50;99.90;;;;;;5014995;28;20046;-66
2023/01/31 09:27:05;;;;;;;10.02;1.60;;;6.30;99.90;;;;;;5014862;28;20518;-67
2023/01/31 09:29:30;;;;;;;10.70;1.30;;;6.30;99.90;;;;;;5016516;28;20042;-69
2023/01/31 09:31:56;;;;;;;7.90;1.20;;;6.30;99.90;;;;;;5015948;28;20045;-68
2023/01/31 09:34:22;;;;;;;9.32;1.30;;;6.60;99.90;;;;;;5014927;28;20104;-69
2023/01/31 09:36:48;;;;;;;10.88;1.30;;;6.40;99.90;;;;;;5015869;28;20050;-68
2023/01/31 09:39:14;;;;;;;8.50;1.20;;;6.50;99.90;;;;;;5015343;28;20045;-69
2023/01/31 09:41:50;;;;;;;9.32;1.33;;;6.60;99.90;;;;;;5014848;28;20045;-74
2023/01/31 09:44:37;;;;;;;11.50;1.77;;;6.40;99.90;;;;;;5016628;28;20046;-69
2023/01/31 09:47:16;;;;;;;10.82;1.85;;;6.30;99.90;;;;;;5015628;28;20069;-69
2023/01/31 09:49:48;;;;;;;9.15;1.20;;;6.50;99.90;;;;;;5015723;28;20057;-68
2023/01/31 09:52:14;;;;;;;6.72;1.35;;;6.30;99.90;;;;;;5016148;28;20107;-70
2023/01/31 09:54:40;;;;;;;12.10;1.60;;;6.30;99.90;;;;;;5015461;28;20042;-69
2023/01/31 09:57:18;;;;;;;10.23;1.38;;;6.70;99.90;;;;;;5014543;28;20054;-69
2023/01/31 09:59:47;;;;;;;9.60;1.40;;;6.50;99.90;;;;;;5015570;28;20052;-69
2023/01/31 10:02:31;;;;;;;10.13;1.50;;;6.60;99.90;;;;;;5014233;28;20050;-68
2023/01/31 10:05:32;;;;;;;6.78;1.33;;;6.50;99.90;;;;;;5015178;28;20046;-68
2023/01/31 10:08:16;;;;;;;9.02;1.80;;;6.40;99.90;;;;;;4979172;28;20058;-68
2023/01/31 10:10:54;;;;;;;5.45;1.50;;;6.40;99.90;;;;;;5015683;28;20391;-68
2023/01/31 10:13:28;;;;;;;11.07;1.77;;;6.30;99.90;;;;;;5015266;28;20056;-66
2023/01/31 10:16:13;;;;;;;8.40;1.63;;;6.20;99.90;;;;;;5015367;28;20133;-71
2023/01/31 10:18:44;;;;;;;12.15;1.80;;;6.40;99.90;;;;;;5015168;28;20053;-68
2023/01/31 10:21:17;;;;;;;6.97;1.60;;;6.40;99.90;;;;;;5015124;28;20050;-67
2023/01/31 10:23:43;;;;;;;;;;;6.40;99.90;;;;;;5015504;28;20089;-68
2023/01/31 10:26:28;;;;;;;7.88;1.48;;;6.70;99.90;;;;;;5014958;28;19972;-66
2023/01/31 10:29:03;;;;;;;8.25;1.42;;;6.40;99.90;;;;;;5015022;28;20096;-67
2023/01/31 10:31:42;;;;;;;9.35;1.55;;;6.60;99.90;;;;;;5015187;28;20052;-69
2023/01/31 10:34:19;;;;;;;8.02;1.50;;;6.50;99.90;;;;;;5014055;28;20453;-69
2023/01/31 10:36:58;;;;;;;9.02;1.50;;;6.60;99.90;;;;;;5013544;28;20053;-69
2023/01/31 10:39:31;;;;;;;7.38;1.40;;;6.60;99.90;;;;;;5014090;28;20053;-67
2023/01/31 10:42:12;;;;;;;9.35;1.60;;;6.80;99.90;;;;;;5013870;28;20103;-68
2023/01/31 10:44:53;;;;;;;8.27;1.23;;;6.60;99.90;;;;;;5014479;28;20060;-68
2023/01/31 10:47:26;;;;;;;10.25;1.48;;;6.60;99.90;;;;;;4997556;28;20049;-69
2023/01/31 10:49:52;;;;;;;10.23;1.90;;;6.80;99.90;;;;;;5015132;28;20041;-68
2023/01/31 10:52:32;;;;;;;7.13;1.50;;;6.70;99.90;;;;;;5014430;28;20388;-70
2023/01/31 10:55:27;;;;;;;7.43;1.88;;;6.60;99.90;;;;;;5015252;28;20049;-67
2023/01/31 10:57:54;;;;;;;10.73;1.98;;;6.90;99.90;;;;;;5014862;28;20058;-66
2023/01/31 11:00:25;;;;;;;5.85;1.55;;;6.70;99.90;;;;;;5014284;28;20483;-67
2023/01/31 11:02:51;;;;;;;8.05;1.25;;;6.60;99.90;;;;;;5015172;28;20061;-67
2023/01/31 11:05:22;;;;;;;7.90;1.88;;;6.50;99.90;;;;;;5014550;28;20472;-68
2023/01/31 11:07:49;;;;;;;4.88;1.23;;;6.50;99.90;;;;;;5013309;28;20140;-68
2023/01/31 11:10:31;;;;;;;6.68;1.30;;;7.00;99.90;;;;;;5014163;28;20050;-67
2023/01/31 11:13:06;;;;;;;8.05;1.13;;;6.80;99.90;;;;;;5014605;28;20041;-69
2023/01/31 11:15:41;;;;;;;6.28;1.00;;;6.50;99.90;;;;;;5013870;28;20054;-67
2023/01/31 11:18:15;;;;;;;5.85;1.05;;;7.10;99.90;;;;;;5013438;28;20049;-66
2023/01/31 11:20:45;;;;;;;;;;;6.50;99.90;;;;;;5014435;28;20137;-67
2023/01/31 11:23:14;;;;;;;7.75;1.45;;;6.40;99.90;;;;;;5014755;28;19992;-67
2023/01/31 11:25:47;;;;;;;6.03;1.50;;;6.60;99.90;;;;;;5014028;28;20046;-68
2023/01/31 11:28:38;;;;;;;10.50;1.35;;;7.00;99.90;;;;;;5013936;28;20046;-67
2023/01/31 11:31:14;;;;;;;4.82;1.33;;;6.70;99.90;;;;;;5014457;28;20125;-67
2023/01/31 11:33:54;;;;;;;5.55;1.13;;;6.60;99.90;;;;;;5013780;28;20129;-67
2023/01/31 11:36:21;;;;;;;8.27;1.17;;;6.60;99.90;;;;;;5016189;28;20049;-70
2023/01/31 11:38:49;;;;;;;10.63;1.42;;;6.50;99.90;;;;;;5014577;28;20085;-68
2023/01/31 11:41:34;;;;;;;8.52;1.58;;;6.60;99.90;;;;;;5013807;28;20050;-66
2023/01/31 11:44:14;;;;;;;6.65;1.30;;;6.50;99.90;;;;;;5013820;28;20046;-67
2023/01/31 11:46:51;;;;;;;9.90;1.42;;;6.50;99.90;;;;;;5014041;28;20049;-66
2023/01/31 11:49:40;;;;;;;7.15;1.92;;;6.50;99.90;;;;;;5013373;28;20053;-66
2023/01/31 11:52:15;;;;;;;9.88;1.80;;;6.60;99.90;;;;;;5014313;28;20046;-67
2023/01/31 11:55:05;;;;;;;8.00;1.75;;;7.00;99.90;;;;;;5012604;28;20487;-66
2023/01/31 11:57:40;;;;;;;11.05;1.65;;;6.70;99.90;;;;;;5014030;28;20049;-65
2023/01/31 12:00:23;;;;;;;10.20;1.60;;;7.00;99.90;;;;;;5012588;28;20395;-67
2023/01/31 12:03:01;;;;;;;8.18;1.38;;;6.50;99.90;;;;;;5015873;28;20061;-67
2023/01/31 12:05:44;;;;;;;7.43;1.75;;;6.50;99.90;;;;;;5017267;28;20053;-67
2023/01/31 12:08:34;;;;;;;10.10;1.70;;;6.80;99.90;;;;;;5017970;28;20045;-66
2023/01/31 12:11:04;;;;;;;8.18;1.55;;;6.70;99.90;;;;;;5016804;28;20046;-67
2023/01/31 12:13:30;;;;;;;7.38;1.27;;;6.80;99.90;;;;;;5017360;28;20125;-66
2023/01/31 12:15:55;;;;;;;5.47;1.55;;;7.10;99.90;;;;;;5015632;28;20046;-67
2023/01/31 12:18:38;;;;;;;9.43;1.58;;;7.00;99.90;;;;;;5016879;28;20061;-66
2023/01/31 12:21:33;;;;;;;6.80;1.52;;;6.70;99.90;;;;;;5000519;28;20050;-68
2023/01/31 12:24:17;;;;;;;10.07;1.63;;;6.80;99.90;;;;;;5017880;28;20176;-68
2023/01/31 12:26:53;;;;;;;9.45;2.13;;;7.10;99.90;;;;;;5016253;28;20132;-68
2023/01/31 12:29:34;;;;;;;11.82;1.70;;;7.00;99.90;;;;;;4999862;28;20145;-67
2023/01/31 12:31:59;;;;;;;11.48;1.60;;;7.00;99.90;;;;;;5017055;28;20161;-67
2023/01/31 12:34:58;;;;;;;9.80;1.80;;;7.00;99.90;;;;;;5016984;28;20495;-68
2023/01/31 12:37:56;;;;;;;10.05;1.40;;;7.00;99.90;;;;;;5017332;28;20046;-67
2023/01/31 12:40:37;;;;;;;11.32;2.03;;;7.20;99.90;;;;;;5017535;28;20050;-69
2023/01/31 12:43:13;;;;;;;11.98;2.15;;;7.00;99.90;;;;;;5017466;28;20050;-67
2023/01/31 12:46:08;;;;;;;15.15;1.75;;;7.30;99.90;;;;;;5016817;28;20041;-67
2023/01/31 12:48:42;;;;;;;9.88;1.80;;;7.30;99.90;;;;;;5017402;28;20085;-66
2023/01/31 12:51:11;;;;;;;17.45;2.53;;;7.40;99.90;;;;;;5017248;28;20368;-66
2023/01/31 12:54:03;;;;;;;9.40;1.48;;;7.30;99.90;;;;;;5017165;28;20056;-66
2023/01/31 12:56:49;;;;;;;10.90;1.83;;;7.50;99.90;;;;;;5016552;28;20046;-65
2023/01/31 12:59:23;;;;;;;8.55;1.90;;;7.60;99.90;;;;;;4999034;28;20057;-67
2023/01/31 13:02:07;;;;;;;8.32;1.92;;;7.50;99.90;;;;;;5015858;28;20476;-66
2023/01/31 13:04:51;;;;;;;12.05;1.83;;;7.50;99.90;;;;;;5016490;28;20137;-66
2023/01/31 13:07:24;;;;;;;12.45;1.92;;;7.40;99.90;;;;;;5016516;28;20501;-67
2023/01/31 13:09:51;;;;;;;8.32;1.55;;;7.40;99.90;;;;;;5017506;28;20140;-66
2023/01/31 13:12:24;;;;;;;5.43;1.35;;;7.60;99.90;;;;;;5015985;28;20053;-74
2023/01/31 13:15:13;;;;;;;8.77;1.58;;;7.60;99.90;;;;;;5014767;28;20510;-67
2023/01/31 13:17:40;;;;;;;9.60;1.30;;;7.60;99.90;;;;;;5016320;28;20072;-67
2023/01/31 13:20:28;;;;;;;9.95;1.40;;;8.10;99.90;;;;;;5016218;28;20042;-67
2023/01/31 13:22:58;;;;;;;9.82;1.38;;;7.80;99.90;;;;;;5016127;28;20057;-68